Pagrindinis puslapis
METAR-TAF:

METAR-TAF

Oro uostai :

Belgorodas, Rusija

platuma: 50-38-36N, ilguma: 036-35-24E, Aukštis: 224 m

Dabartinis oras

Ataskaita buvo paskelbta 19 minutes, ne 08:00 UTC
Vėjas 2 kt iš Pietryčių
Temperatūra 17°C
Drėgmė 59%
Slėgis 1019 hPa
Matomumas: 8000 m

METAR: UUOB 180800Z 13001MPS 8000 NSC 17/09 Q1019 R29/010060 NOSIG

Laikas: 11:19 (08:19 UTC)

Prognozė

Ataskaita buvo paskelbta 3 valandos ir 19 minutes, ne 05:00 UTC
Prognozė galioja nuo 18 metu 06 UTC su 18 metu 15 UTC
Vėjas 10 kt iš Pietvakarių
Matomumas 10 km arba daugiau
nėra debesų žemiau 1500 m ir nėra kamuolinių lietaus debesų

TAF: UUOB 180500Z 1806/1815 22005MPS CAVOK

Orai ataskaitas ir orų prognozės (METAR, TAF).

turimą stotys yra geltonos ir raudonos taškus žemėlapyje.

Perkelti pele per norėdami pamatyti stoties vardą.

Tada spustelėkite, norėdami matyti oro stebėjimo ir prognozės.

Norėdami pakeisti žemėlapį: spustelėkite ant žalios mygtukų su juodo kryžiaus žemyn,; žalią mygtuką su brūkšneliu, jei norite nutolinti; arba žalių rodyklių gretimoms žemėlapius.


METAR-TAF: